createdAt,value
2022-11-30T00:00:36.313Z,94.94
2022-11-30T00:01:36.290Z,94.94
2022-11-30T00:02:36.408Z,94.94
2022-11-30T00:03:36.264Z,94.84
2022-11-30T00:04:36.250Z,94.73
2022-11-30T00:05:36.221Z,94.63
2022-11-30T00:06:36.202Z,94.63
2022-11-30T00:07:36.262Z,94.63
2022-11-30T00:08:36.217Z,94.63
2022-11-30T00:09:36.189Z,94.63
2022-11-30T00:10:36.159Z,94.73
2022-11-30T00:11:36.162Z,94.73
2022-11-30T00:12:36.132Z,94.73
2022-11-30T00:13:36.151Z,94.73
2022-11-30T00:14:36.099Z,94.73
2022-11-30T00:15:36.091Z,94.63
2022-11-30T00:16:36.144Z,94.63
2022-11-30T00:17:36.072Z,94.63
2022-11-30T00:18:36.074Z,94.63
2022-11-30T00:19:36.054Z,94.63
2022-11-30T00:20:36.036Z,94.63
2022-11-30T00:21:36.021Z,94.63
2022-11-30T00:22:36.012Z,94.63
2022-11-30T00:23:36.018Z,94.53
2022-11-30T00:24:35.970Z,94.53
2022-11-30T00:25:35.970Z,94.43
2022-11-30T00:26:35.933Z,94.43
2022-11-30T00:27:35.938Z,94.43
2022-11-30T00:28:35.940Z,94.53
2022-11-30T00:29:35.912Z,94.53
2022-11-30T00:30:35.970Z,94.53
2022-11-30T00:31:35.918Z,94.68
2022-11-30T00:32:35.869Z,94.78
2022-11-30T00:33:35.873Z,94.89
2022-11-30T00:34:35.840Z,94.89
2022-11-30T00:35:35.837Z,94.73
2022-11-30T00:36:35.818Z,94.78
2022-11-30T00:37:35.809Z,94.78
2022-11-30T00:38:35.806Z,94.78
2022-11-30T00:39:35.927Z,94.78
2022-11-30T00:40:35.776Z,94.78
2022-11-30T00:41:35.751Z,94.68
2022-11-30T00:42:35.729Z,94.47
2022-11-30T00:43:35.740Z,94.37
2022-11-30T00:44:35.720Z,94.26
2022-11-30T00:45:35.701Z,94.16
2022-11-30T00:46:35.753Z,94.16
2022-11-30T00:47:35.664Z,94.06
2022-11-30T00:48:35.667Z,94.06
2022-11-30T00:49:35.632Z,93.95
2022-11-30T00:50:35.640Z,93.95
2022-11-30T00:51:35.614Z,93.95
2022-11-30T00:52:35.605Z,93.95
2022-11-30T00:53:35.607Z,93.85
2022-11-30T00:54:35.567Z,93.74
2022-11-30T00:55:35.555Z,93.74
2022-11-30T00:56:35.546Z,93.74
2022-11-30T00:57:35.527Z,93.74
2022-11-30T00:58:35.537Z,93.74
2022-11-30T00:59:35.493Z,93.74
2022-11-30T01:00:35.502Z,93.74
2022-11-30T01:01:35.563Z,93.74
2022-11-30T01:02:35.641Z,93.85
2022-11-30T01:03:35.455Z,93.85
2022-11-30T01:04:35.444Z,93.85
2022-11-30T01:05:35.436Z,93.74
2022-11-30T01:06:35.417Z,93.74
2022-11-30T01:07:35.431Z,93.74
2022-11-30T01:08:35.411Z,93.64
2022-11-30T01:09:35.365Z,93.64
2022-11-30T01:10:35.353Z,93.54
2022-11-30T01:11:35.356Z,93.54
2022-11-30T01:12:35.333Z,93.54
2022-11-30T01:13:35.326Z,93.54
2022-11-30T01:14:35.302Z,93.64
2022-11-30T01:15:35.342Z,93.85
2022-11-30T01:16:35.274Z,93.95
2022-11-30T01:17:35.257Z,93.95
2022-11-30T01:18:35.274Z,93.85
2022-11-30T01:19:35.231Z,93.85
2022-11-30T01:20:35.220Z,93.85
2022-11-30T01:21:35.240Z,93.74
2022-11-30T01:22:35.195Z,93.74
2022-11-30T01:23:35.186Z,93.74
2022-11-30T01:24:35.161Z,93.64
2022-11-30T01:25:35.153Z,93.74
2022-11-30T01:26:35.141Z,93.74
2022-11-30T01:27:35.120Z,93.74
2022-11-30T01:28:35.129Z,93.74
2022-11-30T01:29:35.114Z,93.74
2022-11-30T01:30:35.130Z,93.64
2022-11-30T01:31:35.067Z,93.64
2022-11-30T01:32:35.060Z,93.64
2022-11-30T01:33:35.061Z,93.64
2022-11-30T01:34:35.039Z,93.64
2022-11-30T01:35:35.021Z,93.54
2022-11-30T01:36:35.039Z,93.43
2022-11-30T01:37:34.999Z,93.48
2022-11-30T01:38:34.987Z,93.48
2022-11-30T01:39:34.970Z,93.48
2022-11-30T01:40:34.950Z,93.48
2022-11-30T01:41:34.954Z,93.48
2022-11-30T01:42:34.927Z,93.48
2022-11-30T01:43:34.925Z,93.48
2022-11-30T01:44:34.911Z,93.48
2022-11-30T01:45:34.895Z,93.58
2022-11-30T01:46:34.921Z,93.68
2022-11-30T01:47:34.881Z,93.68
2022-11-30T01:48:34.876Z,93.68
2022-11-30T01:49:34.844Z,93.68
2022-11-30T01:50:34.835Z,93.79
2022-11-30T01:51:34.817Z,93.79
2022-11-30T01:52:34.825Z,93.68
2022-11-30T01:53:34.796Z,93.68
2022-11-30T01:54:34.766Z,93.68
2022-11-30T01:55:34.747Z,93.68
2022-11-30T01:56:34.736Z,93.58
2022-11-30T01:57:34.716Z,93.58
2022-11-30T01:58:34.731Z,93.58
2022-11-30T01:59:34.700Z,93.68
2022-11-30T02:00:34.687Z,93.79
2022-11-30T02:01:34.785Z,93.79
2022-11-30T02:02:34.678Z,93.79
2022-11-30T02:03:34.684Z,93.89
2022-11-30T02:04:34.635Z,93.99
2022-11-30T02:05:34.613Z,94.10
2022-11-30T02:06:34.605Z,94.20
2022-11-30T02:07:34.690Z,94.31
2022-11-30T02:08:34.711Z,94.31
2022-11-30T02:09:34.572Z,94.31
2022-11-30T02:10:34.545Z,94.20
2022-11-30T02:11:34.533Z,94.10
2022-11-30T02:12:34.537Z,94.10
2022-11-30T02:13:34.532Z,93.99
2022-11-30T02:14:34.499Z,93.99
2022-11-30T02:15:34.690Z,93.89
2022-11-30T02:16:34.474Z,93.79
2022-11-30T02:17:34.452Z,93.68
2022-11-30T02:18:34.450Z,93.58
2022-11-30T02:19:34.430Z,93.58
2022-11-30T02:20:34.413Z,93.58
2022-11-30T02:21:34.408Z,93.58
2022-11-30T02:22:34.403Z,93.58
2022-11-30T02:23:40.945Z,93.58
2022-11-30T02:24:35.360Z,93.58
2022-11-30T02:25:34.340Z,93.48
2022-11-30T02:26:34.341Z,93.48
2022-11-30T02:27:34.309Z,93.48
2022-11-30T02:28:34.335Z,93.48
2022-11-30T02:29:34.296Z,93.58
2022-11-30T02:30:34.283Z,93.58
2022-11-30T02:31:34.261Z,93.48
2022-11-30T02:32:34.258Z,93.48
2022-11-30T02:33:34.251Z,93.48
2022-11-30T02:34:34.228Z,93.48
2022-11-30T02:35:34.210Z,93.37
2022-11-30T02:36:34.210Z,93.37
2022-11-30T02:37:34.189Z,93.48
2022-11-30T02:38:34.196Z,93.48
2022-11-30T02:39:34.148Z,93.37
2022-11-30T02:40:34.182Z,93.37
2022-11-30T02:41:37.907Z,93.37
2022-11-30T02:42:34.117Z,93.48
2022-11-30T02:43:34.120Z,93.48
2022-11-30T02:44:34.097Z,93.68
2022-11-30T02:45:34.075Z,93.89
2022-11-30T02:46:34.152Z,93.89
2022-11-30T02:47:34.068Z,93.99
2022-11-30T02:48:34.053Z,94.10
2022-11-30T02:49:34.031Z,94.20
2022-11-30T02:50:34.006Z,94.20
2022-11-30T02:51:33.996Z,94.20
2022-11-30T02:52:33.995Z,94.20
2022-11-30T02:53:33.984Z,93.99
2022-11-30T02:54:33.967Z,93.89
2022-11-30T02:55:33.948Z,93.79
2022-11-30T02:56:33.951Z,93.79
2022-11-30T02:57:33.926Z,93.68
2022-11-30T02:58:33.926Z,93.58
2022-11-30T02:59:33.883Z,93.68
2022-11-30T03:00:33.884Z,93.68
2022-11-30T03:01:33.892Z,93.58
2022-11-30T03:02:33.911Z,93.58
2022-11-30T03:03:33.847Z,93.58
2022-11-30T03:04:33.825Z,93.58
2022-11-30T03:05:33.815Z,93.48
2022-11-30T03:06:33.802Z,93.58
2022-11-30T03:07:33.817Z,93.58
2022-11-30T03:08:33.797Z,93.48
2022-11-30T03:09:33.765Z,93.48
2022-11-30T03:10:33.773Z,93.37
2022-11-30T03:11:33.754Z,93.37
2022-11-30T03:12:33.725Z,93.27
2022-11-30T03:13:33.717Z,93.27
2022-11-30T03:14:33.705Z,93.27
2022-11-30T03:15:33.711Z,93.16
2022-11-30T03:16:33.683Z,93.27
2022-11-30T03:17:33.665Z,93.27
2022-11-30T03:18:33.654Z,93.37
2022-11-30T03:19:33.632Z,93.27
2022-11-30T03:20:33.629Z,93.27
2022-11-30T03:21:33.605Z,93.27
2022-11-30T03:22:33.590Z,93.37
2022-11-30T03:23:33.584Z,93.37
2022-11-30T03:24:33.561Z,93.48
2022-11-30T03:25:33.550Z,93.48
2022-11-30T03:26:33.532Z,93.58
2022-11-30T03:27:33.521Z,93.58
2022-11-30T03:28:33.531Z,93.58
2022-11-30T03:29:33.493Z,93.68
2022-11-30T03:30:33.496Z,93.79
2022-11-30T03:31:33.535Z,94.10
2022-11-30T03:32:33.451Z,94.31
2022-11-30T03:33:33.452Z,94.20
2022-11-30T03:34:33.444Z,94.20
2022-11-30T03:35:33.448Z,94.20
2022-11-30T03:36:33.401Z,94.20
2022-11-30T03:37:33.386Z,94.20
2022-11-30T03:38:33.398Z,94.20
2022-11-30T03:39:33.359Z,94.20
2022-11-30T03:40:33.339Z,94.20
2022-11-30T03:41:33.340Z,94.10
2022-11-30T03:42:33.343Z,93.99
2022-11-30T03:43:33.356Z,93.99
2022-11-30T03:44:33.298Z,93.99
2022-11-30T03:45:33.276Z,93.89
2022-11-30T03:46:33.336Z,93.89
2022-11-30T03:47:33.279Z,93.89
2022-11-30T03:48:33.279Z,93.99
2022-11-30T03:49:33.226Z,93.99
2022-11-30T03:50:33.232Z,93.93
2022-11-30T03:51:33.200Z,93.93
2022-11-30T03:52:33.199Z,94.04
2022-11-30T03:53:33.186Z,93.93
2022-11-30T03:54:33.168Z,93.93
2022-11-30T03:55:33.157Z,93.93
2022-11-30T03:56:33.137Z,93.83
2022-11-30T03:57:33.119Z,93.83
2022-11-30T03:58:33.107Z,93.73
2022-11-30T03:59:33.128Z,93.62
2022-11-30T04:00:33.078Z,93.52
2022-11-30T04:01:33.089Z,93.52
2022-11-30T04:02:33.097Z,93.31
2022-11-30T04:03:33.066Z,93.41
2022-11-30T04:04:33.068Z,93.41
2022-11-30T04:05:33.036Z,93.31
2022-11-30T04:06:33.019Z,93.31
2022-11-30T04:07:33.012Z,93.31
2022-11-30T04:08:33.001Z,93.31
2022-11-30T04:09:32.971Z,93.31
2022-11-30T04:10:32.956Z,93.21
2022-11-30T04:11:32.939Z,93.31
2022-11-30T04:12:32.954Z,93.41
2022-11-30T04:13:32.928Z,93.41
2022-11-30T04:14:32.905Z,93.41
2022-11-30T04:15:32.897Z,93.41
2022-11-30T04:16:32.926Z,93.31
2022-11-30T04:17:32.862Z,93.31
2022-11-30T04:18:32.854Z,93.21
2022-11-30T04:19:32.824Z,93.21
2022-11-30T04:20:36.059Z,93.10
2022-11-30T04:21:33.823Z,93.10
2022-11-30T04:22:32.794Z,93.00
2022-11-30T04:23:32.792Z,93.10
2022-11-30T04:24:32.765Z,93.10
2022-11-30T04:25:32.755Z,93.21
2022-11-30T04:26:32.755Z,93.31
2022-11-30T04:27:32.716Z,93.41
2022-11-30T04:28:32.767Z,93.52
2022-11-30T04:29:32.691Z,93.52
2022-11-30T04:30:32.674Z,93.52
2022-11-30T04:31:32.732Z,93.41
2022-11-30T04:32:32.652Z,93.52
2022-11-30T04:33:32.663Z,93.52
2022-11-30T04:34:32.630Z,93.41
2022-11-30T04:35:32.609Z,93.41
2022-11-30T04:36:32.611Z,93.31
2022-11-30T04:37:32.581Z,93.31
2022-11-30T04:38:32.586Z,93.21
2022-11-30T04:39:32.555Z,93.21
2022-11-30T04:40:32.552Z,93.21
2022-11-30T04:41:32.538Z,93.21
2022-11-30T04:42:32.530Z,93.21
2022-11-30T04:43:32.513Z,93.21
2022-11-30T04:44:32.531Z,93.21
2022-11-30T04:45:35.294Z,93.21
2022-11-30T04:46:32.496Z,93.35
2022-11-30T04:47:32.450Z,93.35
2022-11-30T04:48:32.449Z,93.46
2022-11-30T04:49:32.422Z,93.46
2022-11-30T04:50:32.413Z,93.46
2022-11-30T04:51:32.406Z,93.56
2022-11-30T04:52:32.389Z,93.56
2022-11-30T04:53:32.384Z,93.66
2022-11-30T04:54:32.348Z,93.87
2022-11-30T04:55:32.338Z,93.98
2022-11-30T04:56:32.318Z,93.98
2022-11-30T04:57:32.317Z,94.18
2022-11-30T04:58:32.302Z,94.29
2022-11-30T04:59:32.298Z,94.39
2022-11-30T05:00:32.266Z,94.49
2022-11-30T05:01:32.285Z,94.49
2022-11-30T05:02:32.259Z,94.39
2022-11-30T05:03:32.250Z,94.39
2022-11-30T05:04:32.244Z,94.39
2022-11-30T05:05:32.208Z,94.39
2022-11-30T05:06:32.204Z,94.29
2022-11-30T05:07:32.261Z,94.29
2022-11-30T05:08:32.180Z,94.18
2022-11-30T05:09:32.156Z,94.18
2022-11-30T05:10:32.139Z,94.08
2022-11-30T05:11:32.131Z,94.08
2022-11-30T05:12:32.116Z,94.08
2022-11-30T05:13:32.105Z,94.08
2022-11-30T05:14:32.087Z,94.08
2022-11-30T05:15:32.096Z,94.08
2022-11-30T05:16:32.080Z,94.08
2022-11-30T05:17:32.056Z,94.08
2022-11-30T05:18:32.044Z,94.08
2022-11-30T05:19:32.066Z,94.08
2022-11-30T05:20:32.004Z,94.12
2022-11-30T05:21:32.007Z,94.12
2022-11-30T05:22:31.996Z,94.23
2022-11-30T05:23:31.974Z,94.23
2022-11-30T05:24:31.954Z,94.23
2022-11-30T05:25:31.944Z,94.12
2022-11-30T05:26:31.924Z,94.12
2022-11-30T05:27:31.926Z,94.12
2022-11-30T05:28:31.907Z,94.12
2022-11-30T05:29:31.892Z,94.02
2022-11-30T05:30:31.860Z,94.02
2022-11-30T05:31:31.964Z,94.02
2022-11-30T05:32:31.846Z,93.91
2022-11-30T05:33:31.845Z,93.91
2022-11-30T05:34:41.314Z,93.91
2022-11-30T05:35:32.815Z,93.81
2022-11-30T05:36:31.785Z,93.81
2022-11-30T05:37:31.773Z,93.81
2022-11-30T05:38:31.773Z,93.81
2022-11-30T05:39:31.769Z,93.81
2022-11-30T05:40:31.732Z,93.81
2022-11-30T05:41:31.723Z,93.81
2022-11-30T05:42:31.691Z,93.81
2022-11-30T05:43:31.713Z,93.81
2022-11-30T05:44:31.688Z,93.91
2022-11-30T05:45:31.685Z,93.91
2022-11-30T05:46:31.767Z,93.91
2022-11-30T05:47:31.662Z,93.91
2022-11-30T05:48:31.640Z,94.02
2022-11-30T05:49:31.624Z,94.02
2022-11-30T05:50:31.593Z,94.02
2022-11-30T05:51:31.589Z,94.02
2022-11-30T05:52:31.623Z,94.02
2022-11-30T05:53:31.609Z,94.02
2022-11-30T05:54:31.558Z,94.02
2022-11-30T05:55:31.539Z,93.91
2022-11-30T05:56:31.513Z,93.91
2022-11-30T05:57:31.504Z,93.91
2022-11-30T05:58:31.490Z,93.91
2022-11-30T05:59:31.490Z,93.96
2022-11-30T06:00:31.493Z,93.96
2022-11-30T06:01:31.448Z,93.96
2022-11-30T06:02:31.556Z,93.96
2022-11-30T06:03:31.466Z,94.06
2022-11-30T06:04:31.407Z,94.17
2022-11-30T06:05:31.408Z,94.37
2022-11-30T06:06:31.376Z,94.48
2022-11-30T06:07:31.398Z,94.48
2022-11-30T06:08:31.368Z,94.48
2022-11-30T06:09:31.348Z,94.48
2022-11-30T06:10:31.329Z,94.48
2022-11-30T06:11:31.315Z,94.37
2022-11-30T06:12:31.297Z,94.37
2022-11-30T06:13:31.309Z,94.37
2022-11-30T06:14:31.267Z,94.37
2022-11-30T06:15:31.265Z,94.48
2022-11-30T06:16:31.312Z,94.48
2022-11-30T06:17:31.235Z,94.48
2022-11-30T06:18:31.235Z,94.48
2022-11-30T06:19:31.226Z,94.48
2022-11-30T06:20:31.207Z,94.48
2022-11-30T06:21:31.200Z,94.48
2022-11-30T06:22:31.211Z,94.48
2022-11-30T06:23:31.178Z,94.58
2022-11-30T06:24:31.144Z,94.58
2022-11-30T06:25:31.126Z,94.58
2022-11-30T06:26:31.110Z,94.58
2022-11-30T06:27:31.103Z,94.58
2022-11-30T06:28:31.095Z,94.58
2022-11-30T06:29:31.092Z,94.48
2022-11-30T06:30:31.076Z,94.58
2022-11-30T06:31:31.085Z,94.68
2022-11-30T06:32:31.033Z,94.68
2022-11-30T06:33:31.053Z,94.79
2022-11-30T06:34:31.033Z,95.10
2022-11-30T06:35:31.005Z,95.20
2022-11-30T06:36:35.691Z,95.31
2022-11-30T06:37:31.993Z,95.31
2022-11-30T06:38:30.964Z,95.20
2022-11-30T06:40:04.388Z,95.10
2022-11-30T06:40:31.931Z,95.00
2022-11-30T06:41:30.932Z,94.89
2022-11-30T06:42:30.940Z,94.89
2022-11-30T06:43:30.910Z,94.79
2022-11-30T06:44:30.881Z,94.79
2022-11-30T06:45:30.927Z,94.68
2022-11-30T06:46:30.854Z,94.58
2022-11-30T06:47:30.832Z,94.58
2022-11-30T06:48:30.835Z,94.58
2022-11-30T06:49:30.813Z,94.63
2022-11-30T06:50:30.810Z,94.58
2022-11-30T06:51:30.791Z,94.63
2022-11-30T06:52:30.788Z,94.63
2022-11-30T06:53:30.791Z,94.63
2022-11-30T06:54:30.777Z,94.48
2022-11-30T06:55:30.767Z,94.53
2022-11-30T06:56:30.712Z,94.53
2022-11-30T06:57:30.699Z,94.63
2022-11-30T06:58:30.698Z,94.48
2022-11-30T06:59:30.692Z,94.48
2022-11-30T07:00:30.651Z,94.53
2022-11-30T07:01:30.738Z,94.48
2022-11-30T07:02:30.646Z,94.48
2022-11-30T07:03:30.638Z,94.48
2022-11-30T07:04:30.729Z,94.48
2022-11-30T07:05:30.599Z,94.48
2022-11-30T07:06:30.591Z,94.48
2022-11-30T07:07:30.623Z,94.48
2022-11-30T07:08:30.563Z,94.48
2022-11-30T07:09:30.542Z,94.37
2022-11-30T07:10:30.527Z,94.37
2022-11-30T07:11:30.508Z,94.37
2022-11-30T07:12:30.500Z,94.37
2022-11-30T07:13:30.515Z,94.48
2022-11-30T07:14:30.475Z,94.48
2022-11-30T07:15:30.458Z,94.48
2022-11-30T07:16:30.485Z,94.37
2022-11-30T07:17:30.427Z,94.37
2022-11-30T07:18:32.262Z,94.48
2022-11-30T07:19:30.396Z,94.48
2022-11-30T07:20:30.388Z,94.48
2022-11-30T07:21:30.379Z,94.58
2022-11-30T07:22:30.367Z,94.48
2022-11-30T07:23:30.366Z,94.58
2022-11-30T07:24:30.367Z,94.58
2022-11-30T07:25:30.344Z,94.68
2022-11-30T07:26:30.316Z,94.68
2022-11-30T07:27:30.305Z,94.68
2022-11-30T07:28:30.295Z,94.79
2022-11-30T07:29:30.283Z,94.79
2022-11-30T07:30:30.258Z,94.79
2022-11-30T07:31:30.372Z,94.89
2022-11-30T07:32:30.224Z,94.85
2022-11-30T07:33:30.256Z,94.95
2022-11-30T07:34:30.206Z,94.95
2022-11-30T07:35:30.196Z,95.06
2022-11-30T07:36:30.174Z,95.06
2022-11-30T07:37:30.173Z,95.06
2022-11-30T07:38:30.181Z,95.06
2022-11-30T07:39:30.144Z,95.06
2022-11-30T07:40:30.130Z,95.06
2022-11-30T07:41:30.114Z,95.06
2022-11-30T07:42:30.096Z,95.06
2022-11-30T07:43:30.103Z,95.16
2022-11-30T07:44:30.072Z,95.12
2022-11-30T07:45:30.088Z,95.22
2022-11-30T07:46:30.043Z,95.22
2022-11-30T07:47:30.038Z,95.32
2022-11-30T07:48:30.027Z,95.43
2022-11-30T07:49:30.071Z,95.43
2022-11-30T07:50:29.991Z,95.53
2022-11-30T07:51:29.993Z,95.43
2022-11-30T07:52:30.002Z,95.39
2022-11-30T07:53:29.969Z,95.39
2022-11-30T07:54:29.947Z,95.39
2022-11-30T07:55:29.936Z,95.39
2022-11-30T07:56:29.918Z,95.49
2022-11-30T07:57:29.905Z,95.49
2022-11-30T07:58:29.897Z,95.44
2022-11-30T07:59:29.893Z,95.34
2022-11-30T08:00:29.865Z,95.34
2022-11-30T08:01:29.926Z,95.34
2022-11-30T08:02:29.889Z,95.24
2022-11-30T08:03:33.713Z,95.34
2022-11-30T08:04:30.839Z,95.24
2022-11-30T08:05:29.802Z,95.24
2022-11-30T08:06:29.804Z,95.19
2022-11-30T08:07:29.825Z,95.19
2022-11-30T08:08:29.764Z,95.09
2022-11-30T08:09:29.750Z,94.89
2022-11-30T08:10:29.725Z,94.68
2022-11-30T08:11:29.720Z,94.47
2022-11-30T08:12:29.693Z,94.37
2022-11-30T08:13:29.725Z,94.06
2022-11-30T08:14:29.660Z,93.54
2022-11-30T08:15:33.057Z,93.33
2022-11-30T08:16:29.691Z,93.33
2022-11-30T08:17:29.628Z,93.29
2022-11-30T08:18:29.626Z,93.29
2022-11-30T08:19:29.600Z,93.39
2022-11-30T08:20:29.593Z,93.39
2022-11-30T08:21:29.590Z,93.29
2022-11-30T08:22:29.560Z,93.29
2022-11-30T08:23:29.566Z,92.97
2022-11-30T08:24:29.589Z,92.87
2022-11-30T08:25:29.517Z,92.77
2022-11-30T08:26:29.507Z,92.77
2022-11-30T08:27:29.529Z,92.63
2022-11-30T08:28:29.537Z,92.42
2022-11-30T08:29:29.519Z,92.32
2022-11-30T08:30:32.396Z,92.21
2022-11-30T08:31:29.483Z,92.11
2022-11-30T08:32:29.426Z,92.11
2022-11-30T08:33:30.965Z,92.00
2022-11-30T08:34:29.399Z,92.00
2022-11-30T08:35:29.395Z,91.90
2022-11-30T08:36:29.388Z,91.59
2022-11-30T08:37:29.371Z,91.28
2022-11-30T08:38:29.369Z,91.17
2022-11-30T08:39:29.338Z,91.07
2022-11-30T08:40:29.393Z,90.77
2022-11-30T08:41:29.313Z,90.62
2022-11-30T08:42:29.292Z,90.52
2022-11-30T08:43:29.335Z,90.31
2022-11-30T08:44:29.266Z,90.20
2022-11-30T08:45:29.276Z,90.10
2022-11-30T08:47:30.339Z,90.10
2022-11-30T08:48:29.227Z,90.00
2022-11-30T08:49:29.195Z,89.89
2022-11-30T08:50:29.191Z,89.69
2022-11-30T08:51:42.144Z,89.28
2022-11-30T08:52:30.152Z,89.23
2022-11-30T08:53:29.162Z,89.23
2022-11-30T08:54:29.129Z,89.23
2022-11-30T08:55:29.121Z,89.34
2022-11-30T08:56:29.106Z,89.44
2022-11-30T08:57:29.120Z,89.23
2022-11-30T08:58:29.085Z,89.44
2022-11-30T08:59:29.072Z,89.54
2022-11-30T09:00:29.054Z,89.54
2022-11-30T09:01:31.531Z,89.54
2022-11-30T09:02:29.087Z,89.44
2022-11-30T09:03:29.041Z,89.03
2022-11-30T09:04:29.003Z,88.68
2022-11-30T09:05:29.170Z,88.89
2022-11-30T09:06:28.971Z,88.26
2022-11-30T09:07:29.069Z,87.95
2022-11-30T09:08:28.962Z,87.95
2022-11-30T09:09:28.935Z,87.74
2022-11-30T09:10:28.930Z,87.85
2022-11-30T09:11:28.921Z,87.95
2022-11-30T09:12:28.902Z,87.95
2022-11-30T09:13:28.896Z,87.85
2022-11-30T09:14:28.860Z,87.81
2022-11-30T09:15:28.854Z,87.71
2022-11-30T09:16:28.867Z,87.29
2022-11-30T09:17:28.821Z,87.29
2022-11-30T09:18:28.818Z,87.50
2022-11-30T09:19:28.797Z,87.50
2022-11-30T09:20:28.779Z,87.29
2022-11-30T09:21:28.769Z,87.19
2022-11-30T09:22:28.757Z,86.78
2022-11-30T09:23:28.777Z,86.05
2022-11-30T09:24:28.763Z,85.64
2022-11-30T09:25:28.736Z,85.85
2022-11-30T09:26:28.701Z,86.05
2022-11-30T09:27:28.741Z,85.95
2022-11-30T09:28:28.690Z,85.23
2022-11-30T09:29:28.690Z,85.44
2022-11-30T09:30:28.722Z,85.13
2022-11-30T09:31:28.653Z,85.13
2022-11-30T09:32:28.630Z,85.23
2022-11-30T09:33:28.637Z,85.30
2022-11-30T09:34:28.613Z,85.39
2022-11-30T09:35:28.588Z,84.99
2022-11-30T09:36:28.575Z,85.09
2022-11-30T09:37:28.556Z,85.30
2022-11-30T09:38:28.566Z,85.30
2022-11-30T09:39:28.527Z,84.67
2022-11-30T09:40:33.916Z,84.36
2022-11-30T09:41:29.495Z,84.06
2022-11-30T09:42:28.495Z,84.36
2022-11-30T09:43:28.486Z,84.47
2022-11-30T09:44:28.477Z,84.57
2022-11-30T09:45:28.460Z,84.84
2022-11-30T09:46:28.530Z,84.64
2022-11-30T09:47:31.892Z,84.94
2022-11-30T09:48:28.422Z,84.84
2022-11-30T09:49:28.426Z,84.84
2022-11-30T09:50:28.396Z,84.74
2022-11-30T09:51:28.363Z,83.81
2022-11-30T09:52:28.365Z,83.56
2022-11-30T09:53:29.932Z,82.84
2022-11-30T09:54:28.342Z,82.84
2022-11-30T09:55:28.316Z,82.43
2022-11-30T09:57:25.983Z,82.33
2022-11-30T09:58:25.956Z,82.74
2022-11-30T09:59:25.934Z,83.36
2022-11-30T10:00:25.924Z,83.67
2022-11-30T10:01:29.354Z,83.67
2022-11-30T10:02:27.008Z,82.23
2022-11-30T10:03:25.925Z,82.09
2022-11-30T10:04:25.883Z,81.77
2022-11-30T10:05:25.939Z,81.67
2022-11-30T10:06:25.865Z,81.47
2022-11-30T10:07:25.894Z,81.67
2022-11-30T10:08:25.832Z,81.98
2022-11-30T10:09:25.851Z,82.09
2022-11-30T10:10:33.704Z,81.53
2022-11-30T10:11:26.792Z,81.43
2022-11-30T10:12:25.779Z,81.53
2022-11-30T10:13:25.786Z,81.74
2022-11-30T10:14:25.749Z,81.43
2022-11-30T10:15:25.733Z,81.53
2022-11-30T10:16:25.802Z,81.60
2022-11-30T10:17:25.722Z,81.09
2022-11-30T10:18:25.748Z,81.39
2022-11-30T10:19:25.692Z,81.49
2022-11-30T10:20:25.670Z,81.29
2022-11-30T10:21:25.663Z,81.39
2022-11-30T10:22:25.640Z,81.09
2022-11-30T10:23:25.661Z,80.26
2022-11-30T10:24:25.622Z,80.22
2022-11-30T10:25:25.634Z,79.81
2022-11-30T10:26:25.619Z,79.40
2022-11-30T10:27:25.592Z,79.19
2022-11-30T10:28:46.541Z,79.71
2022-11-30T10:29:26.556Z,79.71
2022-11-30T10:30:25.646Z,79.91
2022-11-30T10:31:25.622Z,80.33
2022-11-30T10:32:25.533Z,79.88
2022-11-30T10:33:25.541Z,79.88
2022-11-30T10:34:25.513Z,79.67
2022-11-30T10:35:25.479Z,79.47
2022-11-30T10:36:25.489Z,79.57
2022-11-30T10:37:25.486Z,79.63
2022-11-30T10:38:25.480Z,79.33
2022-11-30T10:39:25.424Z,78.81
2022-11-30T10:40:25.407Z,78.09
2022-11-30T10:41:25.410Z,77.17
2022-11-30T10:42:25.407Z,77.17
2022-11-30T10:43:25.390Z,77.06
2022-11-30T10:44:25.367Z,76.97
2022-11-30T10:45:25.390Z,76.97
2022-11-30T10:46:25.410Z,76.97
2022-11-30T10:47:25.318Z,77.44
2022-11-30T10:48:25.336Z,77.44
2022-11-30T10:49:25.294Z,77.03
2022-11-30T10:50:25.303Z,77.34
2022-11-30T10:51:25.280Z,77.85
2022-11-30T10:52:25.274Z,77.13
2022-11-30T10:53:25.245Z,76.82
2022-11-30T10:54:25.272Z,76.00
2022-11-30T10:55:25.207Z,75.87
2022-11-30T10:56:25.200Z,76.48
2022-11-30T10:57:25.183Z,75.97
2022-11-30T10:58:25.177Z,74.12
2022-11-30T10:59:25.173Z,74.53
2022-11-30T11:00:25.167Z,74.84
2022-11-30T11:01:25.187Z,74.74
2022-11-30T11:02:25.207Z,74.43
2022-11-30T11:03:25.116Z,76.17
2022-11-30T11:04:25.150Z,76.38
2022-11-30T11:05:25.076Z,76.48
2022-11-30T11:06:25.069Z,75.25
2022-11-30T11:07:25.192Z,74.84
2022-11-30T11:08:25.152Z,74.43
2022-11-30T11:09:25.032Z,73.81
2022-11-30T11:10:25.007Z,72.78
2022-11-30T11:11:25.024Z,72.48
2022-11-30T11:12:24.986Z,72.89
2022-11-30T11:13:25.005Z,73.30
2022-11-30T11:14:24.988Z,74.19
2022-11-30T11:15:24.950Z,74.91
2022-11-30T11:16:25.002Z,73.68
2022-11-30T11:17:24.917Z,72.96
2022-11-30T11:18:24.915Z,73.23
2022-11-30T11:19:24.958Z,74.05
2022-11-30T11:20:24.888Z,73.33
2022-11-30T11:21:24.880Z,73.64
2022-11-30T11:22:25.710Z,73.64
2022-11-30T11:23:24.892Z,74.36
2022-11-30T11:24:24.825Z,74.46
2022-11-30T11:25:24.816Z,74.98
2022-11-30T11:26:24.807Z,74.36
2022-11-30T11:27:24.806Z,74.05
2022-11-30T11:28:24.777Z,71.39
2022-11-30T11:29:24.934Z,71.42
2022-11-30T11:30:24.786Z,70.80
2022-11-30T11:31:24.798Z,71.83
2022-11-30T11:32:24.764Z,72.34
2022-11-30T11:33:24.739Z,71.93
2022-11-30T11:34:24.696Z,72.44
2022-11-30T11:35:24.685Z,72.44
2022-11-30T11:36:24.697Z,72.65
2022-11-30T11:37:24.664Z,73.98
2022-11-30T11:38:24.661Z,74.08
2022-11-30T11:39:24.637Z,72.61
2022-11-30T11:40:24.666Z,72.85
2022-11-30T11:41:24.604Z,72.24
2022-11-30T11:42:24.596Z,72.14
2022-11-30T11:43:24.596Z,71.62
2022-11-30T11:44:24.563Z,71.01
2022-11-30T11:45:24.564Z,71.72
2022-11-30T11:46:24.646Z,71.62
2022-11-30T11:47:24.556Z,71.66
2022-11-30T11:48:28.828Z,71.45
2022-11-30T11:49:24.511Z,71.55
2022-11-30T11:50:57.741Z,72.17
2022-11-30T11:51:25.494Z,72.89
2022-11-30T11:52:24.463Z,73.50
2022-11-30T11:53:24.585Z,72.58
2022-11-30T11:54:24.471Z,71.66
2022-11-30T11:55:24.440Z,71.86
2022-11-30T11:56:24.441Z,72.78
2022-11-30T11:57:24.400Z,73.91
2022-11-30T11:58:24.381Z,74.84
2022-11-30T11:59:29.365Z,74.60
2022-11-30T12:00:25.391Z,74.40
2022-11-30T12:01:40.978Z,73.88
2022-11-30T12:02:25.374Z,73.81
2022-11-30T12:03:24.343Z,72.89
2022-11-30T12:04:24.324Z,71.86
2022-11-30T12:05:24.283Z,72.27
2022-11-30T12:06:24.262Z,72.17
2022-11-30T12:07:24.330Z,71.76
2022-11-30T12:08:24.250Z,72.48
2022-11-30T12:09:24.242Z,72.48
2022-11-30T12:11:25.242Z,73.19
2022-11-30T12:12:24.219Z,72.10
2022-11-30T12:13:24.203Z,71.59
2022-11-30T12:14:31.902Z,72.00
2022-11-30T12:15:24.154Z,72.00
2022-11-30T12:16:24.200Z,72.92
2022-11-30T12:17:24.125Z,73.23
2022-11-30T12:18:24.577Z,72.20
2022-11-30T12:19:24.102Z,71.59
2022-11-30T12:20:24.084Z,71.69
2022-11-30T12:21:24.108Z,71.72
2022-11-30T12:22:24.052Z,71.72
2022-11-30T12:23:24.169Z,72.03
2022-11-30T12:24:24.049Z,71.93
2022-11-30T12:25:24.035Z,71.83
2022-11-30T12:26:24.004Z,72.13
2022-11-30T12:27:24.018Z,72.75
2022-11-30T12:28:23.991Z,72.44
2022-11-30T12:29:24.004Z,72.65
2022-11-30T12:30:23.960Z,72.75
2022-11-30T12:31:23.959Z,72.24
2022-11-30T12:32:23.949Z,71.72
2022-11-30T12:33:25.348Z,72.03
2022-11-30T12:34:23.940Z,71.96
2022-11-30T12:35:23.892Z,72.68
2022-11-30T12:36:23.881Z,73.09
2022-11-30T12:37:23.913Z,73.30
2022-11-30T12:38:23.870Z,73.09
2022-11-30T12:39:23.857Z,72.38
2022-11-30T12:40:24.096Z,72.47
2022-11-30T12:41:23.822Z,73.09
2022-11-30T12:42:23.827Z,73.40
2022-11-30T12:43:23.799Z,73.09
2022-11-30T12:44:23.762Z,72.68
2022-11-30T12:45:23.752Z,73.09
2022-11-30T12:46:23.810Z,73.40
2022-11-30T12:47:23.755Z,73.81
2022-11-30T12:48:23.790Z,74.02
2022-11-30T12:49:23.737Z,72.58
2022-11-30T12:50:23.715Z,72.47
2022-11-30T12:51:29.337Z,72.47
2022-11-30T12:52:24.669Z,72.58
2022-11-30T12:53:23.698Z,73.30
2022-11-30T12:54:23.672Z,72.61
2022-11-30T12:55:23.628Z,72.20